LGKR Airport Information

Runway Information
Runway 16 Length 7792 ft width 148 ft Elevation 5 ft Threshold 1348 ft Heading 169
Runway 34 Length 7792 ft Width 148 ft Elevation 5 ft Threshold 213 ft Heading 349
Airport Frequencies
Type A/G Name KERKIRA RD Frequency 563.7 MHZ
Type APP Name KERKIRA AP Frequency 118.075 MHZ
Type ATIS Name ATIS Frequency 126.35 MHZ
Type TWR Name KERKIRA TW Frequency 120.85 MHZ
Airport Navaids
Type VOR-DME Name Garitsa Frequency 108800 KHZ
Type NDB Name Kerkira Frequency 403 KHZ
Type VOR-DME Name Kerkira Frequency 114700 KHZ
Airport Weather Information & NOTAM
ADDS - METARS form results

(1730 UTC 06 December 2022)
Data provider http://aviationweather.gov/metar/data/
 
METAR text: LGKR 061720Z 14010KT 9999 SCT015 BKN025 16/11 Q1017 NOSIG
Conditions at: LGKR (IOANNIS KAPODIST, GR) observed 1720 UTC 06 December 2022
Temperature: 16.0°C (61°F)
Dewpoint: 11.0°C (52°F) [RH = 72%]
Pressure (altimeter): 30.03 inches Hg (1017.0 mb)
Winds: from the SE (140 degrees) at 12 MPH (10 knots; 5.1 m/s)
Visibility: 6 or more miles (10+ km)
Ceiling: 2500 feet AGL
Clouds: scattered clouds at 1500 feet AGL
broken clouds at 2500 feet AGL
Weather: no significant weather observed at this time

METAR text: LGKR 061650Z 14011KT 9999 SCT015 BKN025 16/11 Q1017 NOSIG
Conditions at: LGKR (IOANNIS KAPODIST, GR) observed 1650 UTC 06 December 2022
Temperature: 16.0°C (61°F)
Dewpoint: 11.0°C (52°F) [RH = 72%]
Pressure (altimeter): 30.03 inches Hg (1017.0 mb)
Winds: from the SE (140 degrees) at 13 MPH (11 knots; 5.7 m/s)
Visibility: 6 or more miles (10+ km)
Ceiling: 2500 feet AGL
Clouds: scattered clouds at 1500 feet AGL
broken clouds at 2500 feet AGL
Weather: no significant weather observed at this time

Forecast for: LGKR (IOANNIS KAPODIST, GR)
Text: TAF LGKR 061700Z 0618/0718 16010KT 9999 SCT015 BKN025
Forecast period: 1800 UTC 06 December 2022 to 1800 UTC 07 December 2022
Forecast type: FROM: standard forecast or significant change
Winds: from the SSE (160 degrees) at 12 MPH (10 knots; 5.1 m/s)
Visibility: 6 or more miles (10+ km)
Ceiling: 2500 feet AGL
Clouds: scattered clouds at 1500 feet AGL
broken clouds at 2500 feet AGL
Weather: no significant weather forecast for this period
Text: PROB40
Forecast period: 0000 to 1800 UTC 07 December 2022
Forecast type: TEMPORARY: The following changes expected for less than half the time period
Visibility: 3 miles (5 km)
Ceiling: 2500 feet AGL
Clouds: scattered clouds at 1200 feet AGL
few clouds at 1800 feet AGL
broken clouds at 2500 feet AGL
Weather: RA  (moderate rain)
Text: TEMPO 0624/0718 5000 RA SCT012 FEW018TCU BKN025
Forecast period: 0900 to 1800 UTC 07 December 2022
Forecast type: TEMPORARY: The following changes expected for less than half the time period
Visibility: 2.49 miles (4.01 km)
Ceiling: 2000 feet AGL
Clouds: scattered clouds at 800 feet AGL
few clouds at 1800 feet AGL
broken clouds at 2000 feet AGL
Weather: TSRA  (rain associated with thunderstorm(s))